Lenoir, NC (28633)

8:03 AM EDT on August 31, 2015 (GMT -0400)
Highland Ave | | Change Station
CLOSE
Current Station
Personal Weather Station
Location: Lenoir, NC
Elevation: 1128 ft
Nearby Weather Stations

Elev 1128 ft 35.91 °N, 81.53 °W | Updated 8 seconds ago

Fog
Fog
64.6 °F
Feels Like 64.6 °F
N
0.0
Wind Variable Wind from NE
Gusts 0.0 mph

Today
High -- | Low -- °F
--% Chance of Precip.
Yesterday
High -- | Low -- °F
Precip. -- in
6:57 AM 7:55 PM
Waning Gibbous, 96% visible
Pressure 30.18 in
Visibility 0.5 miles
Clouds Overcast 100 ft
Dew Point 64 °F
Humidity 99%
Rainfall 0.02 in
Snow Depth Not available.
UV 0 out of 12
Pollen 5.60 out of 12
Air Quality Not available.
Flu Activity Not available.
METAR KMRN 311115Z AUTO 00000KT 1/2SM FG OVC001 17/17 A3018 RMK AO2 T01700170
Pressure 30.18 in
Visibility 0.5 miles
Clouds Overcast 100 ft
Dew Point 64 °F
Humidity 99%
Rainfall 0.02 in
Snow Depth Not available.
UV 0 out of 12
Pollen 5.60 out of 12
Air Quality Not available.
Flu Activity Not available.
METAR KMRN 311115Z AUTO 00000KT 1/2SM FG OVC001 17/17 A3018 RMK AO2 T01700170

10-Day Weather Forecast

×

Almanac

Astronomy

Aug. 31, 2015 Rise Set
Actual Time
Civil Twilight
Nautical Twilight
Astronomical Twilight
Moon
Length of Visible Light
Length of Day
Tomorrow will be .
, % of the Moon is Illuminated

Today's Extremes

State Highs State Lows

Community

WunderPhotos

Upload Photos

1,851,218 photos uploaded!

WunderBlogs® & News

Nearby

Air Quality

  Air Quality AQ Index Pollutant
Not available.

Snow Depth

Station Depth Elevation

Earthquake Activity

City Distance Mag. Time & Date
Minimum magnitude displayed is 2.5.

Coastal Water Temperatures

Place Temperature

Stations

Nearby Weather Stations

Station Location Temp. Windchill Dew Point Humidity Wind Precip. Elev Updated Type